Time;durP1;ratioP1;P1;durP2;ratioP2;P2;SDS_P1;SDS_P2;PMS_P1;PMS_P2;Temp;Humidity;BMP_temperature;BMP_pressure;BME280_temperature;BME280_humidity;BME280_pressure;Samples;Min_cycle;Max_cycle;Signal;HPM_P1;HPM_P2
2023/06/22 00:02:13;;;;;;;9.87;4.80;;;19.00;99.90;;;;;;5013357;28;20487;-74
2023/06/22 00:04:39;;;;;;;7.80;4.30;;;18.90;99.90;;;;;;5030959;28;20851;-74
2023/06/22 00:07:04;;;;;;;7.97;4.80;;;18.90;99.90;;;;;;5013946;28;20187;-74
2023/06/22 00:09:31;;;;;;;7.33;4.90;;;18.80;99.90;;;;;;5013263;28;20190;-73
2023/06/22 00:11:57;;;;;;;7.93;4.50;;;18.80;99.90;;;;;;5013175;28;20699;-73
2023/06/22 00:14:22;;;;;;;8.50;4.17;;;18.70;99.90;;;;;;5023214;28;20585;-72
2023/06/22 00:16:48;;;;;;;6.40;3.90;;;18.70;99.90;;;;;;5042962;28;20228;-73
2023/06/22 00:19:15;;;;;;;10.03;4.90;;;18.60;99.90;;;;;;5041790;28;20782;-73
2023/06/22 00:21:42;;;;;;;10.00;5.47;;;18.60;99.90;;;;;;5030845;28;20500;-73
2023/06/22 00:24:08;;;;;;;15.47;5.10;;;18.60;99.90;;;;;;5030553;28;20451;-73
2023/06/22 00:26:34;;;;;;;9.50;5.33;;;18.60;99.90;;;;;;5013712;28;20537;-73
2023/06/22 00:28:59;;;;;;;8.53;4.80;;;18.50;99.90;;;;;;5013362;28;20313;-73
2023/06/22 00:31:25;;;;;;;8.50;4.10;;;18.50;99.90;;;;;;5031102;28;20210;-73
2023/06/22 00:33:50;;;;;;;6.10;4.07;;;18.40;99.90;;;;;;5030927;28;20186;-73
2023/06/22 00:36:17;;;;;;;8.60;4.73;;;18.50;99.90;;;;;;5012998;28;20194;-73
2023/06/22 00:38:43;;;;;;;7.97;4.77;;;18.40;99.90;;;;;;5030964;28;20206;-73
2023/06/22 00:41:09;;;;;;;10.93;5.03;;;18.50;99.90;;;;;;5012455;28;20488;-73
2023/06/22 00:43:35;;;;;;;8.30;4.77;;;18.40;99.90;;;;;;5030502;28;20182;-73
2023/06/22 00:46:00;;;;;;;10.73;5.17;;;18.50;99.90;;;;;;5029816;28;20248;-73
2023/06/22 00:48:26;;;;;;;11.93;6.83;;;18.40;99.90;;;;;;5030946;28;20252;-73
2023/06/22 00:50:53;;;;;;;15.93;5.80;;;18.40;99.90;;;;;;5030207;28;20198;-73
2023/06/22 00:53:19;;;;;;;7.07;4.27;;;18.40;99.90;;;;;;5030230;28;20186;-73
2023/06/22 00:55:47;;;;;;;11.17;5.63;;;18.40;99.90;;;;;;5030634;28;20936;-73
2023/06/22 00:58:13;;;;;;;8.20;4.63;;;18.30;99.90;;;;;;5017527;28;20417;-73
2023/06/22 01:00:40;;;;;;;8.97;4.50;;;18.30;99.90;;;;;;5011722;28;20425;-73
2023/06/22 01:03:09;;;;;;;12.80;6.20;;;18.40;99.90;;;;;;5030766;28;20421;-73
2023/06/22 01:05:36;;;;;;;8.83;4.70;;;18.40;99.90;;;;;;5030365;28;20441;-73
2023/06/22 01:08:13;;;;;;;8.33;5.33;;;18.30;99.90;;;;;;5013069;28;20510;-73
2023/06/22 01:10:54;;;;;;;7.87;4.60;;;18.30;99.90;;;;;;5029831;28;20425;-73
2023/06/22 01:13:34;;;;;;;10.67;5.70;;;18.30;99.90;;;;;;5032297;28;20913;-73
2023/06/22 01:16:07;;;;;;;12.13;5.80;;;18.30;99.90;;;;;;5034716;28;20420;-73
2023/06/22 01:18:36;;;;;;;10.13;5.77;;;18.30;99.90;;;;;;5046071;28;20432;-72
2023/06/22 01:21:08;;;;;;;8.27;4.77;;;18.30;99.90;;;;;;5029720;28;20483;-73
2023/06/22 01:24:03;;;;;;;12.80;7.13;;;18.30;99.90;;;;;;5028695;28;20409;-73
2023/06/22 01:26:53;;;;;;;15.17;7.20;;;18.30;99.90;;;;;;5023483;28;20429;-73
2023/06/22 01:29:21;;;;;;;14.33;4.77;;;18.30;99.90;;;;;;5020258;28;20436;-73
2023/06/22 01:31:48;;;;;;;14.77;6.73;;;18.30;99.90;;;;;;5012337;28;20436;-73
2023/06/22 01:34:15;;;;;;;12.70;6.37;;;18.30;99.90;;;;;;5012573;28;20421;-73
2023/06/22 01:36:42;;;;;;;9.33;5.60;;;18.30;99.90;;;;;;5033005;28;20416;-73
2023/06/22 01:39:08;;;;;;;10.67;6.53;;;18.20;99.90;;;;;;5016060;28;20947;-73
2023/06/22 01:41:38;;;;;;;11.63;7.07;;;18.20;99.90;;;;;;5033833;28;20591;-73
2023/06/22 01:44:08;;;;;;;11.57;6.33;;;18.20;99.90;;;;;;5033791;28;20413;-73
2023/06/22 01:46:35;;;;;;;14.57;6.37;;;18.30;99.90;;;;;;5033029;28;20444;-73
2023/06/22 01:49:05;;;;;;;10.03;5.83;;;18.30;99.90;;;;;;5033987;28;20763;-73
2023/06/22 01:51:31;;;;;;;9.10;5.30;;;18.30;99.90;;;;;;5033448;28;20870;-73
2023/06/22 01:53:56;;;;;;;11.70;7.30;;;18.20;99.90;;;;;;5033877;28;20424;-72
2023/06/22 01:56:22;;;;;;;16.20;6.50;;;18.20;99.90;;;;;;5033924;28;20562;-73
2023/06/22 01:59:04;;;;;;;13.13;6.00;;;18.20;99.90;;;;;;5016539;28;20543;-73
2023/06/22 02:01:40;;;;;;;11.63;5.60;;;18.20;99.90;;;;;;5003832;28;20210;-73
2023/06/22 02:04:14;;;;;;;14.33;6.43;;;18.20;99.90;;;;;;5015927;28;20448;-73
2023/06/22 02:06:43;;;;;;;11.20;6.53;;;18.10;99.90;;;;;;5033350;28;20495;-73
2023/06/22 02:09:15;;;;;;;9.80;5.40;;;18.20;99.90;;;;;;5015553;28;20425;-73
2023/06/22 02:11:44;;;;;;;8.80;5.03;;;18.20;99.90;;;;;;5015683;28;20429;-73
2023/06/22 02:14:10;;;;;;;14.50;6.63;;;18.20;99.90;;;;;;5036640;28;20427;-73
2023/06/22 02:16:37;;;;;;;10.60;6.23;;;18.20;99.90;;;;;;5045279;28;20424;-73
2023/06/22 02:19:03;;;;;;;7.77;6.00;;;18.20;99.90;;;;;;5046231;28;20507;-73
2023/06/22 02:21:30;;;;;;;11.53;6.53;;;18.20;99.90;;;;;;5014966;28;20472;-73
2023/06/22 02:23:56;;;;;;;11.93;6.33;;;18.20;99.90;;;;;;5033046;28;20182;-73
2023/06/22 02:26:23;;;;;;;17.33;4.90;;;18.30;99.90;;;;;;5033518;28;20468;-73
2023/06/22 02:28:49;;;;;;;9.20;6.07;;;18.20;99.90;;;;;;5015282;28;20190;-73
2023/06/22 02:31:14;;;;;;;10.50;5.33;;;18.10;99.90;;;;;;5032875;28;20421;-73
2023/06/22 02:33:40;;;;;;;10.57;6.00;;;18.00;99.90;;;;;;5033039;28;20627;-73
2023/06/22 02:36:08;;;;;;;10.17;4.93;;;18.00;99.90;;;;;;5032964;28;20228;-73
2023/06/22 02:38:36;;;;;;;11.17;6.17;;;18.10;99.90;;;;;;5033234;28;20178;-73
2023/06/22 02:41:02;;;;;;;10.33;6.33;;;18.10;99.90;;;;;;5032584;28;21003;-73
2023/06/22 02:43:28;;;;;;;15.13;6.60;;;18.00;99.90;;;;;;5033101;28;20453;-73
2023/06/22 02:45:54;;;;;;;15.70;5.57;;;18.00;99.90;;;;;;5014407;28;20468;-73
2023/06/22 02:48:19;;;;;;;12.47;5.17;;;17.90;99.90;;;;;;5032765;28;20189;-73
2023/06/22 02:50:45;;;;;;;11.50;7.03;;;17.90;99.90;;;;;;5032331;28;20520;-73
2023/06/22 02:53:10;;;;;;;11.90;5.60;;;17.90;99.90;;;;;;5009657;28;20625;-73
2023/06/22 02:55:36;;;;;;;10.37;5.57;;;17.90;99.90;;;;;;5025151;28;20265;-73
2023/06/22 02:58:04;;;;;;;11.77;7.10;;;17.90;99.90;;;;;;5032883;28;20498;-73
2023/06/22 03:00:31;;;;;;;10.87;6.73;;;17.90;99.90;;;;;;5032411;28;20198;-73
2023/06/22 03:02:57;;;;;;;18.13;6.63;;;17.80;99.90;;;;;;5032272;28;20516;-73
2023/06/22 03:05:23;;;;;;;28.93;6.80;;;17.80;99.90;;;;;;5032430;28;20445;-73
2023/06/22 03:07:49;;;;;;;12.77;5.80;;;17.70;99.90;;;;;;5032518;28;20449;-73
2023/06/22 03:10:15;;;;;;;12.40;5.73;;;17.70;99.90;;;;;;5030290;28;20463;-73
2023/06/22 03:12:42;;;;;;;16.10;6.10;;;17.60;99.90;;;;;;5029877;28;20425;-73
2023/06/22 03:15:10;;;;;;;14.03;5.33;;;17.60;99.90;;;;;;5032031;28;20453;-73
2023/06/22 03:17:41;;;;;;;9.40;5.50;;;17.60;99.90;;;;;;5036474;28;20421;-73
2023/06/22 03:20:11;;;;;;;11.60;6.30;;;17.50;99.90;;;;;;5037986;28;20421;-73
2023/06/22 03:22:40;;;;;;;14.73;6.77;;;17.50;99.90;;;;;;5031735;28;20543;-73
2023/06/22 03:25:12;;;;;;;10.87;5.57;;;17.50;99.90;;;;;;5031734;28;20906;-73
2023/06/22 03:27:38;;;;;;;10.47;5.47;;;17.50;99.90;;;;;;5032306;28;20416;-73
2023/06/22 03:30:05;;;;;;;15.07;7.10;;;17.50;99.90;;;;;;5014140;28;20413;-73
2023/06/22 03:32:30;;;;;;;9.53;5.77;;;17.50;99.90;;;;;;5013655;28;20186;-73
2023/06/22 03:34:58;;;;;;;20.90;6.97;;;17.40;99.90;;;;;;5032111;28;20864;-73
2023/06/22 03:37:27;;;;;;;10.30;5.80;;;17.40;99.90;;;;;;5032182;28;20478;-73
2023/06/22 03:39:53;;;;;;;10.97;6.90;;;17.40;99.90;;;;;;5013523;28;20516;-73
2023/06/22 03:42:18;;;;;;;17.60;7.13;;;17.40;99.90;;;;;;5013911;28;20652;-73
2023/06/22 03:44:44;;;;;;;15.97;5.97;;;17.40;99.90;;;;;;5013279;28;20191;-73
2023/06/22 03:47:10;;;;;;;12.73;5.77;;;17.40;99.90;;;;;;5025228;28;20206;-74
2023/06/22 03:49:36;;;;;;;7.87;5.07;;;17.40;99.90;;;;;;5031633;28;20220;-74
2023/06/22 03:52:02;;;;;;;10.10;6.00;;;17.40;99.90;;;;;;5031111;28;20189;-74
2023/06/22 03:54:29;;;;;;;12.20;7.30;;;17.40;99.90;;;;;;5031537;28;20189;-74
2023/06/22 03:56:56;;;;;;;23.33;4.83;;;17.40;99.90;;;;;;5031341;28;20479;-73
2023/06/22 03:59:22;;;;;;;10.50;6.30;;;17.40;99.90;;;;;;5030574;28;20949;-73
2023/06/22 04:01:47;;;;;;;10.90;5.73;;;17.50;99.90;;;;;;5031096;28;20461;-73
2023/06/22 04:04:13;;;;;;;17.77;6.37;;;17.50;99.90;;;;;;5031299;28;20240;-73
2023/06/22 04:06:39;;;;;;;8.73;5.30;;;17.50;99.90;;;;;;5013851;28;20256;-74
2023/06/22 04:09:08;;;;;;;19.17;5.50;;;17.50;99.90;;;;;;5031085;28;20436;-73
2023/06/22 04:11:34;;;;;;;12.03;6.67;;;17.50;99.90;;;;;;5011552;28;20740;-73
2023/06/22 04:14:00;;;;;;;13.27;7.87;;;17.50;99.90;;;;;;5024520;28;20429;-73
2023/06/22 04:16:26;;;;;;;25.23;6.13;;;17.50;99.90;;;;;;5013820;28;20190;-73
2023/06/22 04:18:51;;;;;;;18.47;6.83;;;17.50;99.90;;;;;;5031876;28;20194;-73
2023/06/22 04:21:19;;;;;;;17.80;6.60;;;17.50;99.90;;;;;;5013128;28;20206;-73
2023/06/22 04:23:45;;;;;;;10.50;5.77;;;17.60;99.90;;;;;;5030519;28;20178;-73
2023/06/22 04:26:11;;;;;;;8.53;5.70;;;17.60;99.90;;;;;;5030707;28;20421;-73
2023/06/22 04:28:37;;;;;;;12.00;6.90;;;17.60;99.90;;;;;;5031232;28;20772;-73
2023/06/22 04:31:03;;;;;;;17.10;6.40;;;17.70;99.90;;;;;;5030917;28;20605;-74
2023/06/22 04:33:31;;;;;;;13.03;6.20;;;17.70;99.90;;;;;;5031333;28;20635;-73
2023/06/22 04:35:58;;;;;;;16.67;6.63;;;17.80;99.90;;;;;;5030747;28;20194;-73
2023/06/22 04:38:26;;;;;;;11.73;5.80;;;17.80;99.90;;;;;;5041290;28;20432;-74
2023/06/22 04:40:53;;;;;;;18.43;6.73;;;18.00;99.90;;;;;;5033847;28;20444;-74
2023/06/22 04:43:19;;;;;;;11.07;5.33;;;18.00;99.90;;;;;;5033553;28;20436;-74
2023/06/22 04:45:44;;;;;;;9.20;5.90;;;18.00;99.90;;;;;;5030121;28;20421;-74
2023/06/22 04:48:15;;;;;;;16.47;5.67;;;18.10;99.90;;;;;;5013967;28;20432;-74
2023/06/22 04:50:41;;;;;;;6.70;4.37;;;18.10;99.90;;;;;;5030795;28;20258;-74
2023/06/22 04:53:07;;;;;;;12.67;4.33;;;18.20;99.90;;;;;;5030872;28;20558;-74
2023/06/22 04:55:33;;;;;;;9.40;4.67;;;18.20;99.90;;;;;;5030480;28;20194;-74
2023/06/22 04:58:04;;;;;;;7.87;4.93;;;18.30;99.90;;;;;;5013038;28;20232;-74
2023/06/22 05:00:30;;;;;;;18.37;6.43;;;18.40;99.90;;;;;;5030567;28;20193;-74
2023/06/22 05:02:57;;;;;;;8.53;4.87;;;18.50;99.90;;;;;;5030534;28;20464;-74
2023/06/22 05:05:23;;;;;;;8.07;5.60;;;18.60;99.90;;;;;;5030586;28;20479;-74
2023/06/22 05:07:52;;;;;;;8.43;5.70;;;18.60;99.90;;;;;;5011122;28;20587;-74
2023/06/22 05:10:19;;;;;;;11.87;5.73;;;18.70;99.90;;;;;;5032211;28;20492;-73
2023/06/22 05:12:47;;;;;;;11.97;6.17;;;18.80;99.90;;;;;;5014348;28;20424;-73
2023/06/22 05:15:12;;;;;;;11.77;6.20;;;18.90;99.90;;;;;;5032640;28;20429;-74
2023/06/22 05:17:44;;;;;;;13.53;5.20;;;19.00;99.90;;;;;;5044870;28;20762;-74
2023/06/22 05:20:11;;;;;;;13.57;5.23;;;19.10;99.90;;;;;;5039791;28;20261;-74
2023/06/22 05:22:38;;;;;;;18.47;5.20;;;19.20;99.90;;;;;;5034219;28;20464;-74
2023/06/22 05:25:08;;;;;;;9.67;5.17;;;19.30;99.90;;;;;;5034044;28;20417;-74
2023/06/22 05:27:39;;;;;;;12.13;6.13;;;19.40;99.90;;;;;;5034538;28;20472;-73
2023/06/22 05:30:08;;;;;;;11.00;5.80;;;19.50;99.90;;;;;;5034420;28;20417;-74
2023/06/22 05:32:34;;;;;;;15.90;5.90;;;19.60;99.90;;;;;;5033938;28;20421;-74
2023/06/22 05:35:00;;;;;;;6.70;4.33;;;19.60;99.90;;;;;;5034359;28;20420;-73
2023/06/22 05:37:26;;;;;;;13.10;4.97;;;19.70;99.90;;;;;;5034206;28;20514;-74
2023/06/22 05:39:51;;;;;;;7.60;4.63;;;19.80;99.90;;;;;;5034241;28;20648;-73
2023/06/22 05:42:17;;;;;;;8.73;4.53;;;19.80;99.90;;;;;;5027817;28;20251;-74
2023/06/22 05:44:43;;;;;;;9.23;4.10;;;19.90;99.90;;;;;;5033136;28;20183;-73
2023/06/22 05:47:08;;;;;;;10.70;4.97;;;19.90;99.90;;;;;;5034113;28;20209;-73
2023/06/22 05:49:34;;;;;;;10.40;5.60;;;20.00;99.90;;;;;;5034678;28;20174;-73
2023/06/22 05:52:00;;;;;;;12.43;4.70;;;20.00;99.90;;;;;;5034324;28;20567;-73
2023/06/22 05:54:27;;;;;;;8.90;4.40;;;20.00;99.90;;;;;;5034267;28;20293;-73
2023/06/22 05:56:53;;;;;;;9.30;4.60;;;20.10;99.90;;;;;;5034780;28;20566;-73
2023/06/22 05:59:19;;;;;;;9.30;4.40;;;20.10;99.90;;;;;;5034279;28;20534;-73
2023/06/22 06:01:45;;;;;;;6.57;4.30;;;20.10;99.90;;;;;;5034227;28;20678;-73
2023/06/22 06:04:10;;;;;;;6.20;3.93;;;20.20;99.90;;;;;;5034314;28;20202;-73
2023/06/22 06:06:36;;;;;;;10.50;4.70;;;20.20;99.90;;;;;;5034185;28;20190;-74
2023/06/22 06:09:06;;;;;;;8.90;4.37;;;20.20;99.90;;;;;;5016222;28;20247;-73
2023/06/22 06:11:32;;;;;;;13.93;3.50;;;20.30;99.90;;;;;;5033858;28;20436;-74
2023/06/22 06:13:57;;;;;;;12.13;4.77;;;20.30;99.90;;;;;;5037790;28;20417;-74
2023/06/22 06:16:23;;;;;;;7.00;3.43;;;20.40;99.90;;;;;;5034056;28;20193;-73
2023/06/22 06:18:50;;;;;;;8.37;4.40;;;20.50;99.90;;;;;;5019884;28;20281;-73
2023/06/22 06:21:16;;;;;;;7.37;4.13;;;20.60;99.90;;;;;;5030248;28;20201;-73
2023/06/22 06:23:42;;;;;;;6.70;3.50;;;20.60;99.90;;;;;;5031591;28;20421;-73
2023/06/22 06:26:08;;;;;;;13.47;3.93;;;20.80;99.90;;;;;;5014781;28;20424;-73
2023/06/22 06:28:35;;;;;;;5.97;3.33;;;20.80;99.90;;;;;;5033016;28;20183;-73
2023/06/22 06:31:00;;;;;;;16.43;4.50;;;20.90;99.90;;;;;;5032426;28;20751;-73
2023/06/22 06:33:26;;;;;;;6.33;3.90;;;21.00;99.90;;;;;;5032988;28;20428;-74
2023/06/22 06:35:52;;;;;;;4.97;3.10;;;21.20;99.90;;;;;;5032489;28;20277;-73
2023/06/22 06:38:17;;;;;;;9.23;4.10;;;21.30;99.90;;;;;;5032168;28;20183;-68
2023/06/22 06:40:44;;;;;;;4.87;2.87;;;21.30;99.90;;;;;;5031485;28;20216;-68
2023/06/22 06:43:10;;;;;;;9.20;3.67;;;21.40;99.90;;;;;;5032645;28;20717;-68
2023/06/22 06:45:36;;;;;;;7.20;3.97;;;21.50;99.90;;;;;;5032562;28;20520;-68
2023/06/22 06:48:01;;;;;;;7.20;3.30;;;21.60;99.90;;;;;;5031160;28;20200;-68
2023/06/22 06:50:28;;;;;;;10.93;3.33;;;21.70;99.90;;;;;;5032519;28;20189;-68
2023/06/22 06:52:53;;;;;;;5.53;2.87;;;21.80;99.90;;;;;;5032023;28;20273;-67
2023/06/22 06:55:20;;;;;;;9.60;3.80;;;21.90;99.90;;;;;;5032297;28;21128;-68
2023/06/22 06:57:48;;;;;;;9.73;3.60;;;22.00;99.90;;;;;;5032107;28;20503;-68
2023/06/22 07:00:15;;;;;;;12.93;4.13;;;22.10;99.90;;;;;;5031670;28;20467;-68
2023/06/22 07:02:45;;;;;;;9.37;3.00;;;22.30;99.90;;;;;;5031172;28;20522;-71
2023/06/22 07:05:11;;;;;;;7.20;4.30;;;22.40;99.90;;;;;;5032066;28;20849;-71
2023/06/22 07:07:37;;;;;;;16.30;3.63;;;22.50;99.90;;;;;;5031781;28;20421;-71
2023/06/22 07:10:04;;;;;;;5.17;2.47;;;22.60;99.90;;;;;;5031690;28;20760;-71
2023/06/22 07:12:29;;;;;;;8.03;3.67;;;22.70;99.90;;;;;;5030841;28;20210;-71
2023/06/22 07:15:11;;;;;;;5.53;2.90;;;22.90;99.90;;;;;;5039253;28;20451;-71
2023/06/22 07:17:37;;;;;;;4.10;2.23;;;23.00;99.90;;;;;;5029659;28;20181;-70
2023/06/22 07:20:11;;;;;;;6.30;3.47;;;23.10;99.90;;;;;;5031603;28;20874;-71
2023/06/22 07:22:38;;;;;;;8.13;2.87;;;23.40;99.90;;;;;;5031390;28;20464;-71
2023/06/22 07:25:08;;;;;;;7.03;2.77;;;23.60;99.90;;;;;;5063344;23;20579;-71
2023/06/22 07:27:39;;;;;;;5.83;2.10;;;23.80;99.90;;;;;;5059975;28;20787;-71
2023/06/22 07:30:06;;;;;;;9.97;2.60;;;24.20;99.90;;;;;;5033455;28;21764;-71
2023/06/22 07:32:32;;;;;;;6.90;3.03;;;24.50;99.90;;;;;;5050591;28;20416;-71
2023/06/22 07:34:57;;;;;;;6.30;3.53;;;24.80;99.90;;;;;;5049766;28;20411;-70
2023/06/22 07:37:23;;;;;;;5.13;2.63;;;25.00;99.90;;;;;;5049953;28;20424;-71
2023/06/22 07:39:53;;;;;;;6.43;2.57;;;25.30;99.90;;;;;;5050119;28;20184;-71
2023/06/22 07:42:19;;;;;;;5.33;2.30;;;25.50;99.90;;;;;;5050680;28;20219;-70
2023/06/22 07:44:44;;;;;;;5.22;2.95;;;26.20;99.90;;;;;;5041769;28;20173;-70
2023/06/22 07:47:10;;;;;;;7.88;2.75;;;26.80;99.40;;;;;;5046122;28;20193;-71
2023/06/22 07:49:36;;;;;;;10.82;3.10;;;26.80;99.20;;;;;;5050357;28;20173;-68
2023/06/22 07:52:02;;;;;;;7.40;3.17;;;27.40;98.30;;;;;;5047608;28;20180;-68
2023/06/22 07:54:27;;;;;;;5.38;2.88;;;27.80;98.10;;;;;;5045190;28;20319;-69
2023/06/22 07:56:53;;;;;;;6.70;3.25;;;28.20;96.80;;;;;;5051295;28;20603;-68
2023/06/22 07:59:18;;;;;;;7.50;3.10;;;28.80;95.50;;;;;;5050118;28;20186;-68
2023/06/22 08:01:44;;;;;;;9.88;3.17;;;29.30;94.90;;;;;;5048398;28;20225;-68
2023/06/22 08:04:10;;;;;;;4.80;2.63;;;29.80;93.40;;;;;;5052564;28;20649;-67
2023/06/22 08:06:35;;;;;;;3.90;2.65;;;30.00;92.60;;;;;;5046108;28;20177;-69
2023/06/22 08:09:01;;;;;;;6.38;3.60;;;29.80;92.30;;;;;;5048652;28;20188;-70
2023/06/22 08:11:27;;;;;;;8.98;3.70;;;29.60;92.40;;;;;;5048826;28;20228;-69
2023/06/22 08:13:55;;;;;;;6.38;3.90;;;29.50;92.20;;;;;;5048900;28;20187;-69
2023/06/22 08:16:21;;;;;;;22.83;3.25;;;28.80;93.10;;;;;;5056544;28;20265;-69
2023/06/22 08:18:47;;;;;;;11.77;3.08;;;28.00;94.80;;;;;;5049767;28;20255;-69
2023/06/22 08:21:12;;;;;;;6.07;2.55;;;28.10;94.60;;;;;;5048174;28;20240;-69
2023/06/22 08:23:38;;;;;;;4.57;2.70;;;28.20;94.50;;;;;;5051277;28;20614;-69
2023/06/22 08:26:04;;;;;;;9.95;2.72;;;27.70;94.80;;;;;;5051327;28;20189;-69
2023/06/22 08:28:29;;;;;;;6.30;3.05;;;27.30;95.80;;;;;;5048916;28;20188;-69
2023/06/22 08:30:55;;;;;;;5.07;3.35;;;27.10;95.40;;;;;;5048170;28;20184;-69
2023/06/22 08:33:23;;;;;;;5.35;2.17;;;27.10;95.30;;;;;;5048627;28;20173;-69
2023/06/22 08:35:50;;;;;;;10.50;3.65;;;27.10;95.50;;;;;;5052473;28;20181;-69
2023/06/22 08:38:18;;;;;;;5.85;3.20;;;26.90;96.10;;;;;;5048467;28;20538;-69
2023/06/22 08:40:44;;;;;;;10.20;3.00;;;27.10;96.00;;;;;;5047731;28;20342;-69
2023/06/22 08:43:09;;;;;;;5.45;2.95;;;26.90;96.50;;;;;;5047909;28;20524;-69
2023/06/22 08:45:35;;;;;;;16.77;3.40;;;26.90;96.70;;;;;;5047061;28;20320;-70
2023/06/22 08:48:00;;;;;;;8.18;2.85;;;27.00;96.40;;;;;;5047509;28;20185;-69
2023/06/22 08:50:26;;;;;;;4.13;2.85;;;26.80;96.60;;;;;;5048147;28;20177;-69
2023/06/22 08:52:52;;;;;;;11.88;3.47;;;27.00;96.40;;;;;;5046570;28;20322;-69
2023/06/22 08:55:18;;;;;;;9.85;3.05;;;26.60;96.60;;;;;;5047530;28;20614;-69
2023/06/22 08:57:43;;;;;;;11.30;3.45;;;26.60;97.40;;;;;;5038328;28;20231;-69
2023/06/22 09:00:17;;;;;;;9.05;2.63;;;26.80;96.30;;;;;;5043456;28;20197;-69
2023/06/22 09:02:46;;;;;;;6.43;3.10;;;27.10;96.90;;;;;;5041068;28;20755;-70
2023/06/22 09:05:12;;;;;;;8.98;3.47;;;28.00;95.90;;;;;;5044565;28;20192;-70
2023/06/22 09:07:38;;;;;;;7.38;3.85;;;28.70;95.10;;;;;;5044159;28;20177;-68
2023/06/22 09:10:05;;;;;;;5.15;2.92;;;29.40;94.10;;;;;;5043145;28;20227;-70
2023/06/22 09:12:32;;;;;;;8.43;3.28;;;29.70;92.60;;;;;;5047147;28;20268;-69
2023/06/22 09:15:02;;;;;;;10.93;3.55;;;30.40;91.60;;;;;;5042510;28;20185;-69
2023/06/22 09:17:28;;;;;;;6.30;3.03;;;30.40;92.00;;;;;;5046987;28;20181;-69
2023/06/22 09:19:53;;;;;;;6.32;3.08;;;30.40;91.10;;;;;;5045961;28;20653;-69
2023/06/22 09:22:19;;;;;;;6.35;3.53;;;30.80;90.20;;;;;;5044362;28;20372;-69
2023/06/22 09:24:45;;;;;;;8.90;3.45;;;30.40;90.90;;;;;;5045540;28;20224;-69
2023/06/22 09:27:10;;;;;;;6.45;2.97;;;30.60;91.00;;;;;;5047770;28;20731;-69
2023/06/22 09:29:36;;;;;;;7.05;2.97;;;30.30;90.90;;;;;;5043695;28;20257;-69
2023/06/22 09:32:02;;;;;;;10.10;3.63;;;30.30;90.20;;;;;;5043338;28;20196;-69
2023/06/22 09:34:27;;;;;;;11.95;3.65;;;30.30;90.20;;;;;;5045040;28;20504;-69
2023/06/22 09:36:53;;;;;;;5.63;3.25;;;30.30;91.50;;;;;;5042846;28;20189;-70
2023/06/22 09:39:19;;;;;;;5.53;2.92;;;30.20;90.90;;;;;;5047254;28;20231;-69
2023/06/22 09:41:44;;;;;;;18.20;3.53;;;30.40;90.40;;;;;;5047255;28;20319;-69
2023/06/22 09:44:10;;;;;;;9.73;3.47;;;30.40;89.60;;;;;;5047222;28;20185;-69
2023/06/22 09:46:35;;;;;;;6.85;3.33;;;30.10;90.60;;;;;;5047563;28;20652;-69
2023/06/22 09:49:01;;;;;;;5.05;3.17;;;30.30;91.10;;;;;;5048153;28;20224;-69
2023/06/22 09:51:27;;;;;;;14.60;3.70;;;30.20;90.70;;;;;;5047565;28;20544;-70
2023/06/22 09:53:53;;;;;;;4.95;2.50;;;30.30;90.00;;;;;;5046635;28;20188;-69
2023/06/22 09:56:19;;;;;;;6.65;3.25;;;29.90;90.00;;;;;;5049006;28;20552;-69
2023/06/22 09:58:46;;;;;;;8.65;3.15;;;29.90;90.10;;;;;;5059232;28;20188;-69
2023/06/22 10:01:14;;;;;;;8.02;3.10;;;29.80;90.60;;;;;;5053796;28;20296;-66
2023/06/22 10:03:41;;;;;;;9.77;3.90;;;29.60;91.60;;;;;;5052320;28;20187;-65
2023/06/22 10:06:08;;;;;;;7.60;2.95;;;29.30;91.70;;;;;;5052253;28;20185;-65
2023/06/22 10:08:34;;;;;;;5.60;3.25;;;29.30;92.40;;;;;;5052613;28;20204;-65
2023/06/22 10:10:59;;;;;;;10.85;3.53;;;29.50;91.90;;;;;;5051399;28;20272;-65
2023/06/22 10:13:25;;;;;;;6.35;2.78;;;29.30;92.10;;;;;;5049896;28;20272;-65
2023/06/22 10:15:51;;;;;;;10.23;4.00;;;29.40;91.90;;;;;;5051573;28;20186;-66
2023/06/22 10:18:20;;;;;;;14.60;3.65;;;29.60;91.60;;;;;;5052437;28;20215;-66
2023/06/22 10:20:48;;;;;;;9.07;3.33;;;29.50;91.00;;;;;;5053710;28;20184;-66
2023/06/22 10:23:14;;;;;;;6.97;3.30;;;29.70;91.80;;;;;;5051882;28;20610;-65
2023/06/22 10:25:40;;;;;;;10.40;3.60;;;29.90;91.90;;;;;;5051881;28;20238;-66
2023/06/22 10:28:05;;;;;;;6.97;3.60;;;30.30;91.90;;;;;;5052023;28;20524;-65
2023/06/22 10:30:31;;;;;;;10.50;3.95;;;30.40;91.30;;;;;;5058186;28;20661;-66
2023/06/22 10:32:56;;;;;;;5.80;3.20;;;30.10;90.50;;;;;;5053009;28;20222;-65
2023/06/22 10:35:22;;;;;;;5.50;3.05;;;30.30;91.80;;;;;;5051706;28;20292;-65
2023/06/22 10:37:49;;;;;;;18.02;3.13;;;30.30;90.90;;;;;;5049819;28;20534;-65
2023/06/22 10:40:16;;;;;;;5.07;3.22;;;29.80;91.50;;;;;;5053996;28;20192;-66
2023/06/22 10:42:42;;;;;;;9.82;4.40;;;29.90;91.30;;;;;;5033508;28;20208;-69
2023/06/22 10:45:08;;;;;;;11.60;3.75;;;29.60;91.30;;;;;;5051330;28;20209;-69
2023/06/22 10:47:35;;;;;;;9.35;3.60;;;29.60;91.70;;;;;;5050680;28;20737;-69
2023/06/22 10:50:01;;;;;;;11.23;3.55;;;29.80;92.20;;;;;;5043896;28;20185;-69
2023/06/22 10:52:27;;;;;;;4.35;2.85;;;29.60;91.50;;;;;;5050859;28;20634;-69
2023/06/22 10:54:53;;;;;;;29.73;3.85;;;29.70;92.50;;;;;;5051680;28;20193;-68
2023/06/22 10:57:18;;;;;;;5.15;3.25;;;29.80;92.30;;;;;;5051764;28;20213;-68
2023/06/22 10:59:44;;;;;;;6.65;3.80;;;29.80;92.10;;;;;;5051082;28;20212;-69
2023/06/22 11:02:10;;;;;;;6.18;3.20;;;29.40;92.10;;;;;;5051237;28;20291;-69
2023/06/22 11:04:35;;;;;;;6.50;3.65;;;29.50;92.30;;;;;;5051061;28;20280;-68
2023/06/22 11:07:01;;;;;;;8.75;3.97;;;29.50;92.30;;;;;;5051002;28;20644;-68
2023/06/22 11:09:27;;;;;;;7.50;3.72;;;29.50;92.70;;;;;;5049804;28;20624;-68
2023/06/22 11:11:55;;;;;;;11.15;4.07;;;29.30;93.60;;;;;;5050388;28;20207;-69
2023/06/22 11:14:22;;;;;;;7.57;3.40;;;29.20;93.10;;;;;;5044943;28;20235;-69
2023/06/22 11:16:48;;;;;;;9.30;4.18;;;28.90;92.90;;;;;;5048884;28;20174;-69
2023/06/22 11:19:13;;;;;;;7.82;3.70;;;28.90;92.80;;;;;;5050776;28;20196;-68
2023/06/22 11:21:39;;;;;;;6.60;3.47;;;28.80;93.50;;;;;;5033181;28;20231;-68
2023/06/22 11:24:05;;;;;;;10.65;3.13;;;28.90;93.90;;;;;;5050427;28;20201;-68
2023/06/22 11:26:31;;;;;;;10.35;4.35;;;29.00;93.90;;;;;;5055376;28;20182;-69
2023/06/22 11:28:57;;;;;;;5.60;2.92;;;29.40;93.10;;;;;;5051396;28;20173;-69
2023/06/22 11:31:23;;;;;;;5.40;2.83;;;29.70;92.30;;;;;;5050385;28;20267;-69
2023/06/22 11:33:49;;;;;;;5.65;4.18;;;29.70;91.90;;;;;;5050647;28;20563;-69
2023/06/22 11:36:15;;;;;;;8.95;3.50;;;29.90;92.60;;;;;;5050396;28;20614;-68
2023/06/22 11:38:41;;;;;;;7.10;3.28;;;30.00;91.70;;;;;;5046928;28;20264;-69
2023/06/22 11:41:08;;;;;;;9.43;3.35;;;30.00;91.60;;;;;;5049882;28;20268;-69
2023/06/22 11:43:34;;;;;;;10.05;3.70;;;29.80;92.20;;;;;;5049256;28;20180;-68
2023/06/22 11:46:03;;;;;;;11.57;3.38;;;29.70;92.70;;;;;;5049235;28;20181;-69
2023/06/22 11:48:29;;;;;;;7.53;3.58;;;29.50;93.40;;;;;;5050089;28;20638;-69
2023/06/22 11:50:55;;;;;;;4.82;3.13;;;29.60;93.30;;;;;;5049835;28;20181;-68
2023/06/22 11:53:24;;;;;;;9.50;3.90;;;29.40;94.10;;;;;;5050319;28;20177;-68
2023/06/22 11:55:50;;;;;;;6.03;3.30;;;29.30;94.20;;;;;;5049568;28;20265;-69
2023/06/22 11:58:16;;;;;;;7.00;4.03;;;29.30;93.90;;;;;;5053190;28;20260;-69
2023/06/22 12:00:42;;;;;;;5.03;2.97;;;29.40;93.70;;;;;;5050455;28;20181;-70
2023/06/22 12:03:09;;;;;;;7.03;3.75;;;29.00;94.20;;;;;;5051154;28;20212;-69
2023/06/22 12:05:34;;;;;;;8.20;4.10;;;28.70;94.80;;;;;;5050394;28;20634;-69
2023/06/22 12:08:00;;;;;;;8.57;3.42;;;28.60;95.10;;;;;;5046289;28;20173;-69
2023/06/22 12:10:28;;;;;;;6.72;3.53;;;28.50;95.00;;;;;;5049971;28;20558;-69
2023/06/22 12:12:54;;;;;;;6.82;3.15;;;28.50;94.80;;;;;;5030284;28;20250;-69
2023/06/22 12:15:20;;;;;;;9.38;3.90;;;28.70;95.30;;;;;;5049256;28;20209;-69
2023/06/22 12:17:45;;;;;;;6.88;3.65;;;28.60;95.70;;;;;;5046933;28;20511;-70
2023/06/22 12:20:11;;;;;;;7.10;3.42;;;28.70;95.90;;;;;;5051421;28;20185;-69
2023/06/22 12:22:37;;;;;;;10.27;4.15;;;28.70;95.40;;;;;;5047048;28;20215;-70
2023/06/22 12:25:03;;;;;;;25.63;4.07;;;28.60;94.70;;;;;;5049107;28;20310;-69
2023/06/22 12:27:30;;;;;;;7.57;3.70;;;28.60;95.00;;;;;;5049426;28;20272;-69
2023/06/22 12:29:56;;;;;;;10.48;4.38;;;28.60;94.90;;;;;;5049918;28;20181;-69
2023/06/22 12:32:21;;;;;;;6.40;3.30;;;28.40;95.30;;;;;;5049827;28;20188;-69
2023/06/22 12:34:47;;;;;;;7.72;3.90;;;28.20;95.30;;;;;;5049674;28;20600;-69
2023/06/22 12:37:13;;;;;;;6.40;3.60;;;28.20;95.50;;;;;;5049958;28;20184;-69
2023/06/22 12:39:41;;;;;;;10.98;4.15;;;28.30;95.70;;;;;;5048414;28;20186;-71
2023/06/22 12:42:08;;;;;;;8.80;3.90;;;28.30;95.10;;;;;;5049030;28;20233;-71